Goffs, California
Current Conditions -  °F | °C
As of 2:56 PM on Thursday 23 Oct 2014 (Local Time) from KEED Reporting Station
Clear Clear  
Wind Chill: 92°   Ceiling: Unl
Heat Index: 92°   Visibility: 10mi
Dew Point: 40°   Wind: 6mph
Humidity: 16%   Direction: 80°E
Pressure: 29.93"   Gusts: NA
Location:  34.6052°N, 115.241°W
Report Text: KEED 232156Z AUTO 08005KT 10SM CLR 33/04 A2993 RMK AO2 SLP108 T03330044
Loading
Personal Weather Stations






























Interactive Weather Map
Tropical Storm Tracking
New forecast layout! Learn more

10-Day Weather Forecast

Advertisements
Track Severe Weather on mobile